Time;durP1;ratioP1;P1;durP2;ratioP2;P2;SDS_P1;SDS_P2;PMS_P1;PMS_P2;Temp;Humidity;BMP_temperature;BMP_pressure;BME280_temperature;BME280_humidity;BME280_pressure;Samples;Min_cycle;Max_cycle;Signal;HPM_P1;HPM_P2
2022/03/12 00:01:52;;;;;;;;;;;8.20;99.90;;;;;;5092779;28;19919;-80
2022/03/12 00:04:18;;;;;;;;;;;8.20;99.90;;;;;;5093580;28;19962;-81
2022/03/12 00:06:43;;;;;;;;;;;8.20;99.90;;;;;;5093561;28;19912;-81
2022/03/12 00:09:09;;;;;;;;;;;8.20;99.90;;;;;;5093848;28;20372;-81
2022/03/12 00:11:35;;;;;;;;;;;8.20;99.90;;;;;;5093560;28;20414;-81
2022/03/12 00:14:03;;;;;;;;;;;8.20;99.90;;;;;;5094257;28;19919;-82
2022/03/12 00:16:29;;;;;;;;;;;8.10;99.90;;;;;;5093392;28;19912;-80
2022/03/12 00:18:55;;;;;;;;;;;8.10;99.90;;;;;;5092970;28;19908;-80
2022/03/12 00:21:25;;;;;;;;;;;8.10;99.90;;;;;;5092137;28;19916;-80
2022/03/12 00:23:51;;;;;;;;;;;8.00;99.90;;;;;;5093291;28;19947;-80
2022/03/12 00:26:17;;;;;;;;;;;8.00;99.90;;;;;;5093899;28;19916;-80
2022/03/12 00:28:44;;;;;;;;;;;8.00;99.90;;;;;;5093354;28;19908;-80
2022/03/12 00:31:10;;;;;;;;;;;8.00;99.90;;;;;;5093551;28;19935;-80
2022/03/12 00:33:36;;;;;;;;;;;8.00;99.90;;;;;;5096166;28;19940;-79
2022/03/12 00:36:02;;;;;;;;;;;8.00;99.90;;;;;;5103403;28;19908;-79
2022/03/12 00:38:28;;;;;;;;;;;7.90;99.90;;;;;;5095060;28;20376;-77
2022/03/12 00:40:54;;;;;;;;;;;7.90;99.90;;;;;;5093178;28;19908;-78
2022/03/12 00:43:19;;;;;;;;;;;7.90;99.90;;;;;;5094030;28;19955;-79
2022/03/12 00:45:46;;;;;;;;;;;7.90;99.90;;;;;;5093575;28;20006;-77
2022/03/12 00:48:12;;;;;;;;;;;7.90;99.90;;;;;;5094441;28;20268;-77
2022/03/12 00:50:38;;;;;;;;;;;7.90;99.90;;;;;;5093371;28;19908;-76
2022/03/12 00:53:03;;;;;;;;;;;7.80;99.90;;;;;;5093756;28;19943;-76
2022/03/12 00:55:29;;;;;;;;;;;7.80;99.90;;;;;;5093515;28;20400;-78
2022/03/12 00:57:55;;;;;;;;;;;7.80;99.90;;;;;;5093355;28;19912;-79
2022/03/12 01:00:21;;;;;;;;;;;7.80;99.90;;;;;;5093422;28;19959;-76
2022/03/12 01:02:47;;;;;;;;;;;7.80;99.90;;;;;;5092936;28;19909;-76
2022/03/12 01:05:14;;;;;;;;;;;7.80;99.90;;;;;;5093768;28;20268;-79
2022/03/12 01:07:39;;;;;;;;;;;7.80;99.90;;;;;;5092864;28;19912;-76
2022/03/12 01:10:05;;;;;;;;;;;7.80;99.90;;;;;;5093740;28;19908;-76
2022/03/12 01:12:30;;;;;;;;;;;7.80;99.90;;;;;;5093164;28;20281;-76
2022/03/12 01:14:57;;;;;;;;;;;7.80;99.90;;;;;;5093091;28;20285;-76
2022/03/12 01:17:22;;;;;;;;;;;7.70;99.90;;;;;;5093700;28;19908;-76
2022/03/12 01:19:48;;;;;;;;;;;7.80;99.90;;;;;;5091681;28;19909;-79
2022/03/12 01:22:15;;;;;;;;;;;7.70;99.90;;;;;;5093317;28;20379;-76
2022/03/12 01:24:40;;;;;;;;;;;7.70;99.90;;;;;;5092517;28;19915;-76
2022/03/12 01:27:06;;;;;;;;;;;7.70;99.90;;;;;;5093420;28;19912;-77
2022/03/12 01:29:32;;;;;;;;;;;7.70;99.90;;;;;;5093308;28;19908;-77
2022/03/12 01:31:57;;;;;;;;;;;7.70;99.90;;;;;;5092774;28;19913;-76
2022/03/12 01:34:23;;;;;;;;;;;7.60;99.90;;;;;;5093303;28;19916;-77
2022/03/12 01:36:48;;;;;;;;;;;7.60;99.90;;;;;;5092759;28;19918;-77
2022/03/12 01:39:14;;;;;;;;;;;7.60;99.90;;;;;;5093087;28;19915;-77
2022/03/12 01:41:40;;;;;;;;;;;7.60;99.90;;;;;;5092664;28;19915;-76
2022/03/12 01:44:06;;;;;;;;;;;7.60;99.90;;;;;;5093256;28;19954;-77
2022/03/12 01:46:33;;;;;;;;;;;7.60;99.90;;;;;;5093245;28;19908;-77
2022/03/12 01:48:59;;;;;;;;;;;7.60;99.90;;;;;;5092642;28;19915;-77
2022/03/12 01:51:28;;;;;;;;;;;7.60;99.90;;;;;;5092769;28;19912;-78
2022/03/12 01:53:54;;;;;;;;;;;7.60;99.90;;;;;;5092523;28;19919;-77
2022/03/12 01:56:20;;;;;;;;;;;7.60;99.90;;;;;;5093158;28;19908;-77
2022/03/12 01:58:47;;;;;;;;;;;7.60;99.90;;;;;;5092401;28;19908;-78
2022/03/12 02:01:14;;;;;;;;;;;7.60;99.90;;;;;;5092865;28;19951;-78
2022/03/12 02:03:40;;;;;;;;;;;7.70;99.90;;;;;;5092341;28;19908;-78
2022/03/12 02:06:06;;;;;;;;;;;7.70;99.90;;;;;;5093083;28;19908;-80
2022/03/12 02:08:31;;;;;;;;;;;7.60;99.90;;;;;;5093122;28;19908;-81
2022/03/12 02:10:59;;;;;;;;;;;7.60;99.90;;;;;;5092241;28;19918;-81
2022/03/12 02:13:25;;;;;;;;;;;7.60;99.90;;;;;;5092997;28;20353;-81
2022/03/12 02:15:58;;;;;;;;;;;7.60;99.90;;;;;;5092397;28;20418;-82
2022/03/12 02:18:23;;;;;;;;;;;7.50;99.90;;;;;;5092977;28;19908;-81
2022/03/12 02:20:49;;;;;;;;;;;7.50;99.90;;;;;;5092333;28;20003;-80
2022/03/12 02:23:14;;;;;;;;;;;7.40;99.90;;;;;;5092725;28;19908;-80
2022/03/12 02:25:40;;;;;;;;;;;7.40;99.90;;;;;;5092066;28;19915;-77
2022/03/12 02:28:16;;;;;;;;;;;7.40;99.90;;;;;;5092845;28;19908;-79
2022/03/12 02:30:46;;;;;;;;;;;7.40;99.90;;;;;;5092120;28;20007;-78
2022/03/12 02:33:13;;;;;;;;;;;7.40;99.90;;;;;;5092768;28;19955;-78
2022/03/12 02:35:38;;;;;;;;;;;7.40;99.90;;;;;;5092690;28;19961;-77
2022/03/12 02:38:04;;;;;;;;;;;7.40;99.90;;;;;;5092316;28;19912;-78
2022/03/12 02:40:31;;;;;;;;;;;7.30;99.90;;;;;;5092454;28;19919;-78
2022/03/12 02:42:58;;;;;;;;;;;7.30;99.90;;;;;;5092059;28;19915;-78
2022/03/12 02:45:26;;;;;;;;;;;7.30;99.90;;;;;;5097814;28;19908;-78
2022/03/12 02:47:55;;;;;;;;;;;7.20;99.90;;;;;;5105085;28;19908;-78
2022/03/12 02:50:21;;;;;;;;;;;7.30;99.90;;;;;;5093322;28;19915;-79
2022/03/12 02:52:47;;;;;;;;;;;7.20;99.90;;;;;;5092033;28;19912;-78
2022/03/12 02:55:17;;;;;;;;;;;7.20;99.90;;;;;;5092371;28;20010;-78
2022/03/12 02:57:46;;;;;;;;;;;7.20;99.90;;;;;;5091935;28;19914;-77
2022/03/12 03:00:12;;;;;;;;;;;7.20;99.90;;;;;;5091946;28;19963;-78
2022/03/12 03:02:39;;;;;;;;;;;7.20;99.90;;;;;;5092416;28;19912;-78
2022/03/12 03:05:16;;;;;;;;;;;7.20;99.90;;;;;;5094816;28;19912;-78
2022/03/12 03:07:45;;;;;;;;;;;7.20;99.90;;;;;;5095572;28;19953;-77
2022/03/12 03:10:20;;;;;;;;;;;7.20;99.90;;;;;;5095889;28;19908;-78
2022/03/12 03:12:45;;;;;;;;;;;7.10;99.90;;;;;;5096334;28;20261;-77
2022/03/12 03:15:14;;;;;;;;;;;7.20;99.90;;;;;;5096187;28;19912;-77
2022/03/12 03:17:40;;;;;;;;;;;7.20;99.90;;;;;;5095534;28;19908;-77
2022/03/12 03:20:06;;;;;;;;;;;7.10;99.90;;;;;;5094136;28;19908;-78
2022/03/12 03:22:31;;;;;;;;;;;7.10;99.90;;;;;;5095552;28;19908;-77
2022/03/12 03:24:57;;;;;;;;;;;7.10;99.90;;;;;;5094821;28;19908;-78
2022/03/12 03:27:22;;;;;;;;;;;7.10;99.90;;;;;;5095591;28;20365;-77
2022/03/12 03:29:48;;;;;;;;;;;7.10;99.90;;;;;;5095169;28;19916;-77
2022/03/12 03:32:13;;;;;;;;;;;7.10;99.90;;;;;;5096622;28;19912;-77
2022/03/12 03:34:40;;;;;;;;;;;7.10;99.90;;;;;;5106707;28;19916;-78
2022/03/12 03:37:05;;;;;;;;;;;7.00;99.90;;;;;;5096990;28;20346;-77
2022/03/12 03:39:31;;;;;;;;;;;7.10;99.90;;;;;;5095795;28;19912;-78
2022/03/12 03:41:56;;;;;;;;;;;7.10;99.90;;;;;;5094716;28;20357;-77
2022/03/12 03:44:25;;;;;;;;;;;7.00;99.90;;;;;;5101732;28;19908;-77
2022/03/12 03:46:51;;;;;;;;;;;7.10;99.90;;;;;;5103485;28;19908;-77
2022/03/12 03:49:17;;;;;;;;;;;7.10;99.90;;;;;;5095553;28;20043;-77
2022/03/12 03:51:43;;;;;;;;;;;7.10;99.90;;;;;;5095343;28;19959;-78
2022/03/12 03:54:09;;;;;;;;;;;7.10;99.90;;;;;;5093359;28;19919;-77
2022/03/12 03:56:35;;;;;;;;;;;7.10;99.90;;;;;;5093752;28;19909;-78
2022/03/12 03:59:01;;;;;;;;;;;7.10;99.90;;;;;;5092927;28;20007;-77
2022/03/12 04:01:27;;;;;;;;;;;7.10;99.90;;;;;;5094834;28;20007;-77
2022/03/12 04:03:52;;;;;;;;;;;7.10;99.90;;;;;;5094340;28;19908;-77
2022/03/12 04:06:19;;;;;;;;;;;7.10;99.90;;;;;;5094736;28;19916;-77
2022/03/12 04:08:45;;;;;;;;;;;7.10;99.90;;;;;;5094828;28;20007;-78
2022/03/12 04:11:13;;;;;;;;;;;7.10;99.90;;;;;;5094366;28;20066;-78
2022/03/12 04:13:39;;;;;;;;;;;7.20;99.90;;;;;;5094579;28;19915;-78
2022/03/12 04:16:06;;;;;;;;;;;7.20;99.90;;;;;;5094012;28;19908;-77
2022/03/12 04:18:32;;;;;;;;;;;7.30;99.90;;;;;;5095039;28;20399;-77
2022/03/12 04:20:58;;;;;;;;;;;7.30;99.90;;;;;;5103741;28;19915;-77
2022/03/12 04:23:25;;;;;;;;;;;7.30;99.90;;;;;;5098670;28;19915;-77
2022/03/12 04:25:55;;;;;;;;;;;7.30;99.90;;;;;;5093843;28;20315;-77
2022/03/12 04:28:22;;;;;;;;;;;7.30;99.90;;;;;;5094470;28;19908;-77
2022/03/12 04:30:48;;;;;;;;;;;7.40;99.90;;;;;;5094079;28;19915;-76
2022/03/12 04:33:14;;;;;;;;;;;7.40;99.90;;;;;;5094161;28;19965;-77
2022/03/12 04:35:41;;;;;;;;;;;7.40;99.90;;;;;;5094338;28;19973;-77
2022/03/12 04:38:09;;;;;;;;;;;7.40;99.90;;;;;;5093796;28;19973;-76
2022/03/12 04:40:37;;;;;;;;;;;7.40;99.90;;;;;;5094049;28;19909;-76
2022/03/12 04:43:04;;;;;;;;;;;7.40;99.90;;;;;;5092237;28;19916;-76
2022/03/12 04:45:30;;;;;;;;;;;7.40;99.90;;;;;;5094163;28;19912;-76
2022/03/12 04:47:56;;;;;;;;;;;7.40;99.90;;;;;;5093346;28;19915;-77
2022/03/12 04:50:22;;;;;;;;;;;7.40;99.90;;;;;;5093909;28;19908;-77
2022/03/12 04:52:49;;;;;;;;;;;7.50;99.90;;;;;;5093593;28;19958;-77
2022/03/12 04:55:16;;;;;;;;;;;7.50;99.90;;;;;;5093646;28;20380;-77
2022/03/12 04:57:42;;;;;;;;;;;7.40;99.90;;;;;;5094023;28;19915;-78
2022/03/12 05:00:14;;;;;;;;;;;7.40;99.90;;;;;;5093371;28;19920;-77
2022/03/12 05:02:40;;;;;;;;;;;7.40;99.90;;;;;;5096782;28;19940;-77
2022/03/12 05:05:06;;;;;;;;;;;7.40;99.90;;;;;;5096492;28;19915;-77
2022/03/12 05:07:32;;;;;;;;;;;7.40;99.90;;;;;;5105347;28;19908;-78
2022/03/12 05:09:58;;;;;;;;;;;7.40;99.90;;;;;;5096450;28;20345;-77
2022/03/12 05:12:24;;;;;;;;;;;7.40;99.90;;;;;;5093282;28;19912;-77
2022/03/12 05:14:54;;;;;;;;;;;7.40;99.90;;;;;;5093555;28;19919;-77
2022/03/12 05:17:26;;;;;;;;;;;7.40;99.90;;;;;;5092229;28;19923;-77
2022/03/12 05:19:52;;;;;;;;;;;7.30;99.90;;;;;;5092975;28;19908;-77
2022/03/12 05:22:17;;;;;;;;;;;7.30;99.90;;;;;;5093238;28;19908;-77
2022/03/12 05:24:43;;;;;;;;;;;7.30;99.90;;;;;;5093779;28;20341;-77
2022/03/12 05:27:14;;;;;;;;;;;7.20;99.90;;;;;;5092354;28;19946;-77
2022/03/12 05:29:41;;;;;;;;;;;7.20;99.90;;;;;;5093270;28;19909;-77
2022/03/12 05:32:12;;;;;;;;;;;7.20;99.90;;;;;;5092665;28;19912;-77
2022/03/12 05:34:37;;;;;;;;;;;7.20;99.90;;;;;;5093420;28;19919;-77
2022/03/12 05:37:08;;;;;;;;;;;7.20;99.90;;;;;;5091590;28;19908;-77
2022/03/12 05:39:34;;;;;;;;;;;7.10;99.90;;;;;;5093303;28;20238;-76
2022/03/12 05:42:00;;;;;;;;;;;7.10;99.90;;;;;;5092705;28;19920;-76
2022/03/12 05:44:28;;;;;;;;;;;7.10;99.90;;;;;;5093134;28;19908;-76
2022/03/12 05:46:53;;;;;;;;;;;7.00;99.90;;;;;;5091716;28;20222;-76
2022/03/12 05:49:19;;;;;;;;;;;7.00;99.90;;;;;;5091654;28;19912;-77
2022/03/12 05:51:44;;;;;;;;;;;7.00;99.90;;;;;;5094986;28;19913;-77
2022/03/12 05:54:10;;;;;;;;;;;7.00;99.90;;;;;;5104119;28;19912;-77
2022/03/12 05:56:40;;;;;;;;;;;6.90;99.90;;;;;;5093563;28;20345;-77
2022/03/12 05:59:06;;;;;;;;;;;6.90;99.90;;;;;;5092294;28;20078;-77
2022/03/12 06:01:32;;;;;;;;;;;6.90;99.90;;;;;;5093278;28;19914;-77
2022/03/12 06:04:00;;;;;;;;;;;6.90;99.90;;;;;;5092233;28;20007;-77
2022/03/12 06:06:29;;;;;;;;;;;6.90;99.90;;;;;;5092949;28;19962;-77
2022/03/12 06:08:58;;;;;;;;;;;6.90;99.90;;;;;;5092629;28;20246;-76
2022/03/12 06:11:25;;;;;;;;;;;6.90;99.90;;;;;;5092976;28;19913;-76
2022/03/12 06:14:00;;;;;;;;;;;6.90;99.90;;;;;;5092699;28;19919;-76
2022/03/12 06:16:27;;;;;;;;;;;6.90;99.90;;;;;;5092814;28;19959;-76
2022/03/12 06:18:53;;;;;;;;;;;6.90;99.90;;;;;;5092939;28;19909;-76
2022/03/12 06:21:18;;;;;;;;;;;6.90;99.90;;;;;;5092092;28;19908;-76
2022/03/12 06:23:44;;;;;;;;;;;6.90;99.90;;;;;;5092574;28;19931;-76
2022/03/12 06:26:14;;;;;;;;;;;6.90;99.90;;;;;;5091789;28;19955;-76
2022/03/12 06:28:41;;;;;;;;;;;6.80;99.90;;;;;;5092721;28;20383;-76
2022/03/12 06:31:07;;;;;;;;;;;6.70;99.90;;;;;;5092097;28;20399;-76
2022/03/12 06:33:34;;;;;;;;;;;6.70;99.90;;;;;;5091382;28;20028;-76
2022/03/12 06:36:01;;;;;;;;;;;6.70;99.90;;;;;;5091947;28;19959;-76
2022/03/12 06:38:26;;;;;;;;;;;6.60;99.90;;;;;;5097837;28;20327;-77
2022/03/12 06:40:56;;;;;;;;;;;6.50;99.90;;;;;;5106040;28;19912;-76
2022/03/12 06:43:21;;;;;;;;;;;6.50;99.90;;;;;;5096068;28;19908;-76
2022/03/12 06:45:48;;;;;;;;;;;6.50;99.90;;;;;;5095026;28;19908;-77
2022/03/12 06:48:14;;;;;;;;;;;6.40;99.90;;;;;;5095651;28;20376;-76
2022/03/12 06:50:39;;;;;;;;;;;6.40;99.90;;;;;;5096213;28;19912;-76
2022/03/12 06:53:06;;;;;;;;;;;6.40;99.90;;;;;;5098185;28;20398;-76
2022/03/12 06:55:32;;;;;;;;;;;6.30;99.90;;;;;;5096384;28;19953;-77
2022/03/12 06:57:58;;;;;;;;;;;6.30;99.90;;;;;;5095949;28;19912;-76
2022/03/12 07:00:24;;;;;;;;;;;6.40;99.90;;;;;;5095971;28;19990;-77
2022/03/12 07:02:50;;;;;;;;;;;6.40;99.90;;;;;;5096477;28;20261;-77
2022/03/12 07:05:16;;;;;;;;;;;6.40;99.90;;;;;;5095351;28;19916;-77
2022/03/12 07:07:42;;;;;;;;;;;6.40;99.90;;;;;;5096052;28;19962;-77
2022/03/12 07:10:08;;;;;;;;;;;6.50;99.90;;;;;;5095491;28;20311;-76
2022/03/12 07:12:35;;;;;;;;;;;6.50;99.90;;;;;;5095880;28;19919;-77
2022/03/12 07:15:00;;;;;;;;;;;6.50;99.90;;;;;;5095418;28;19912;-76
2022/03/12 07:17:26;;;;;;;;;;;6.50;99.90;;;;;;5095534;28;19931;-77
2022/03/12 07:19:51;;;;;;;;;;;6.50;99.90;;;;;;5095736;28;20368;-77
2022/03/12 07:22:17;;;;;;;;;;;6.50;99.90;;;;;;5095163;28;20003;-77
2022/03/12 07:24:43;;;;;;;;;;;6.50;99.90;;;;;;5101261;28;19915;-76
2022/03/12 07:27:08;;;;;;;;;;;6.50;99.90;;;;;;5095860;28;19908;-76
2022/03/12 07:29:34;;;;;;;;;;;6.60;99.90;;;;;;5095333;28;19915;-76
2022/03/12 07:31:59;;;;;;;;;;;6.60;99.90;;;;;;5095552;28;19912;-76
2022/03/12 07:34:25;;;;;;;;;;;6.70;99.90;;;;;;5093558;28;19919;-76
2022/03/12 07:36:51;;;;;;;;;;;6.70;99.90;;;;;;5094024;28;19908;-76
2022/03/12 07:39:16;;;;;;;;;;;6.80;99.90;;;;;;5094754;28;19914;-76
2022/03/12 07:41:42;;;;;;;;;;;6.80;99.90;;;;;;5094045;28;19908;-76
2022/03/12 07:44:08;;;;;;;;;;;6.90;99.90;;;;;;5094719;28;19908;-76
2022/03/12 07:46:34;;;;;;;;;;;6.90;99.90;;;;;;5095112;28;19969;-76
2022/03/12 07:49:00;;;;;;;;;;;7.00;99.90;;;;;;5095121;28;19912;-77
2022/03/12 07:51:26;;;;;;;;;;;7.10;99.90;;;;;;5094360;28;19919;-76
2022/03/12 07:53:52;;;;;;;;;;;7.10;99.90;;;;;;5094713;28;19912;-77
2022/03/12 07:56:18;;;;;;;;;;;7.10;99.90;;;;;;5094266;28;19912;-76
2022/03/12 07:58:44;;;;;;;;;;;7.10;99.90;;;;;;5094250;28;20380;-76
2022/03/12 08:01:10;;;;;;;;;;;7.10;99.90;;;;;;5093964;28;19909;-76
2022/03/12 08:03:36;;;;;;;;;;;7.20;99.90;;;;;;5094861;28;20329;-76
2022/03/12 08:06:06;;;;;;;;;;;7.30;99.90;;;;;;5094848;28;20352;-76
2022/03/12 08:08:31;;;;;;;;;;;7.40;99.90;;;;;;5097188;28;20254;-77
2022/03/12 08:13:43;;;;;;;;;;;7.50;99.90;;;;;;5094503;28;19919;-77
2022/03/12 08:16:09;;;;;;;;;;;7.60;99.90;;;;;;5092517;28;20368;-76
2022/03/12 08:18:35;;;;;;;;;;;7.60;99.90;;;;;;5094268;28;20250;-77
2022/03/12 08:21:00;;;;;;;;;;;7.70;99.90;;;;;;5094976;28;19999;-76
2022/03/12 08:23:26;;;;;;;;;;;7.80;99.90;;;;;;5093880;28;19927;-77
2022/03/12 08:25:51;;;;;;;;;;;7.80;99.90;;;;;;5093951;28;19909;-77
2022/03/12 08:28:18;;;;;;;;;;;7.90;99.90;;;;;;5092346;28;19908;-77
2022/03/12 08:30:43;;;;;;;;;;;7.90;99.90;;;;;;5094273;28;19915;-76
2022/03/12 08:33:10;;;;;;;;;;;7.90;99.90;;;;;;5093424;28;20010;-76
2022/03/12 08:35:36;;;;;;;;;;;8.00;99.90;;;;;;5093718;28;19908;-76
2022/03/12 08:38:02;;;;;;;;;;;8.20;99.90;;;;;;5092717;28;19962;-76
2022/03/12 08:40:28;;;;;;;;;;;8.20;99.90;;;;;;5093378;28;19915;-76
2022/03/12 08:42:54;;;;;;;;;;;8.20;99.90;;;;;;5093978;28;19960;-75
2022/03/12 08:45:20;;;;;;;;;;;8.20;99.90;;;;;;5093204;28;19908;-76
2022/03/12 08:47:46;;;;;;;;;;;8.20;99.90;;;;;;5093846;28;19908;-76
2022/03/12 08:50:12;;;;;;;;;;;8.40;99.90;;;;;;5093347;28;19998;-76
2022/03/12 08:52:38;;;;;;;;;;;8.60;99.90;;;;;;5093831;28;19919;-76
2022/03/12 08:55:04;;;;;;;;;;;8.60;99.90;;;;;;5097686;28;19912;-76
2022/03/12 08:57:30;;;;;;;;;;;8.60;99.90;;;;;;5094102;28;20284;-76
2022/03/12 08:59:55;;;;;;;;;;;8.60;99.90;;;;;;5092110;28;19920;-76
2022/03/12 09:02:23;;;;;;;;;;;8.70;99.90;;;;;;5092045;28;20343;-76
2022/03/12 09:04:49;;;;;;;;;;;8.70;99.90;;;;;;5093693;28;20414;-76
2022/03/12 09:07:14;;;;;;;;;;;8.80;99.90;;;;;;5092749;28;19912;-75
2022/03/12 09:09:40;;;;;;;;;;;8.80;99.90;;;;;;5094992;28;19915;-76
2022/03/12 09:12:06;;;;;;;;;;;8.70;99.90;;;;;;5093145;28;20011;-77
2022/03/12 09:14:34;;;;;;;;;;;8.90;99.90;;;;;;5092505;28;19912;-77
2022/03/12 09:17:04;;;;;;;;;;;8.90;99.90;;;;;;5093284;28;19977;-77
2022/03/12 09:19:32;;;;;;;;;;;8.80;99.90;;;;;;5092739;28;20031;-76
2022/03/12 09:21:57;;;;;;;;;;;8.80;99.90;;;;;;5093154;28;19915;-75
2022/03/12 09:24:23;;;;;;;;;;;8.90;99.90;;;;;;5092472;28;20276;-75
2022/03/12 09:26:49;;;;;;;;;;;8.90;99.90;;;;;;5093547;28;19908;-76
2022/03/12 09:29:15;;;;;;;;;;;8.90;99.90;;;;;;5095987;28;20004;-75
2022/03/12 09:31:40;;;;;;;;;;;8.90;99.90;;;;;;5092940;28;19919;-76
2022/03/12 09:34:06;;;;;;;;;;;9.00;99.90;;;;;;5091858;28;19935;-77
2022/03/12 09:36:32;;;;;;;;;;;9.00;99.90;;;;;;5092327;28;19912;-76
2022/03/12 09:38:58;;;;;;;;;;;9.00;99.90;;;;;;5093463;28;19908;-76
2022/03/12 09:41:23;;;;;;;;;;;8.90;99.90;;;;;;5096496;28;19961;-76
2022/03/12 09:43:50;;;;;;;;;;;9.00;99.90;;;;;;5092879;28;19912;-77
2022/03/12 09:46:16;;;;;;;;;;;9.00;99.90;;;;;;5091681;28;20380;-76
2022/03/12 09:48:42;;;;;;;;;;;9.00;99.90;;;;;;5092869;28;19908;-76
2022/03/12 09:51:07;;;;;;;;;;;9.10;99.90;;;;;;5092244;28;19969;-77
2022/03/12 09:53:34;;;;;;;;;;;9.10;99.90;;;;;;5091936;28;19971;-77
2022/03/12 09:55:59;;;;;;;;;;;9.10;99.90;;;;;;5091347;28;19919;-76
2022/03/12 09:58:31;;;;;;;;;;;9.00;99.90;;;;;;5092187;28;19909;-76
2022/03/12 10:00:56;;;;;;;;;;;9.10;99.90;;;;;;5092859;28;20272;-76
2022/03/12 10:03:22;;;;;;;;;;;9.10;99.90;;;;;;5092390;28;19915;-76
2022/03/12 10:05:48;;;;;;;;;;;9.10;99.90;;;;;;5092610;28;19987;-76
2022/03/12 10:08:13;;;;;;;;;;;9.20;99.90;;;;;;5092555;28;19915;-76
2022/03/12 10:10:39;;;;;;;;;;;9.20;99.90;;;;;;5093102;28;20436;-76
2022/03/12 10:13:05;;;;;;;;;;;9.20;99.90;;;;;;5094485;28;19916;-76
2022/03/12 10:15:30;;;;;;;;;;;9.20;99.90;;;;;;5096599;28;19915;-76
2022/03/12 10:17:56;;;;;;;;;;;9.30;99.90;;;;;;5097033;28;19994;-76
2022/03/12 10:20:22;;;;;;;;;;;9.20;99.90;;;;;;5096478;28;20024;-77
2022/03/12 10:22:47;;;;;;;;;;;9.30;99.90;;;;;;5096879;28;19927;-77
2022/03/12 10:25:13;;;;;;;;;;;9.30;99.90;;;;;;5096349;28;19919;-76
2022/03/12 10:27:39;;;;;;;;;;;9.30;99.90;;;;;;5096539;28;19912;-76
2022/03/12 10:30:06;;;;;;;;;;;9.40;99.90;;;;;;5096609;28;19912;-76
2022/03/12 10:32:34;;;;;;;;;;;9.40;99.90;;;;;;5095998;28;19912;-76
2022/03/12 10:35:01;;;;;;;;;;;9.40;99.90;;;;;;5096399;28;20348;-76
2022/03/12 10:37:28;;;;;;;;;;;9.40;99.90;;;;;;5095708;28;19955;-76
2022/03/12 10:40:03;;;;;;;;;;;9.50;99.90;;;;;;5096606;28;19908;-77
2022/03/12 10:42:30;;;;;;;;;;;9.50;99.90;;;;;;5095782;28;19957;-77
2022/03/12 10:45:03;;;;;;;;;;;9.60;99.90;;;;;;5096536;28;19960;-76
2022/03/12 10:47:28;;;;;;;;;;;9.50;99.90;;;;;;5099643;28;19975;-77
2022/03/12 10:49:58;;;;;;;;;;;9.60;99.90;;;;;;5096164;28;19908;-77
2022/03/12 10:52:24;;;;;;;;;;;9.50;99.90;;;;;;5095739;28;19919;-76
2022/03/12 10:54:50;;;;;;;;;;;9.60;99.90;;;;;;5095643;28;19916;-76
2022/03/12 10:57:17;;;;;;;;;;;9.60;99.90;;;;;;5096116;28;19908;-76
2022/03/12 10:59:43;;;;;;;;;;;9.60;99.90;;;;;;5096113;28;19927;-76
2022/03/12 11:02:09;;;;;;;;;;;9.60;99.90;;;;;;5095944;28;19908;-77
2022/03/12 11:04:34;;;;;;;;;;;9.60;99.90;;;;;;5095127;28;20019;-76
2022/03/12 11:07:20;;;;;;;;;;;9.60;99.90;;;;;;5095842;28;20378;-77
2022/03/12 11:09:45;;;;;;;;;;;9.60;99.90;;;;;;5095867;28;19908;-77
2022/03/12 11:12:29;;;;;;;;;;;9.60;99.90;;;;;;5095668;28;20413;-77
2022/03/12 11:15:16;;;;;;;;;;;9.60;99.90;;;;;;5095823;28;19991;-77
2022/03/12 11:17:43;;;;;;;;;;;9.50;99.90;;;;;;5095252;28;19931;-76
2022/03/12 11:20:20;;;;;;;;;;;9.60;99.90;;;;;;5095434;28;20422;-77
2022/03/12 11:23:04;;;;;;;;;;;9.70;99.90;;;;;;5095801;28;19916;-77
2022/03/12 11:25:30;;;;;;;;;;;9.70;99.90;;;;;;5094483;28;19915;-77
2022/03/12 11:27:59;;;;;;;;;;;9.70;99.90;;;;;;5095876;28;20373;-77
2022/03/12 11:30:24;;;;;;;;;;;9.80;99.90;;;;;;5095066;28;20009;-76
2022/03/12 11:33:03;;;;;;;;;;;9.90;99.90;;;;;;5095124;28;19918;-77
2022/03/12 11:35:34;;;;;;;;;;;9.90;99.90;;;;;;5094938;28;20296;-77
2022/03/12 11:38:09;;;;;;;;;;;9.90;99.90;;;;;;5095591;28;19912;-77
2022/03/12 11:40:40;;;;;;;;;;;9.90;99.90;;;;;;5094754;28;19908;-76
2022/03/12 11:43:18;;;;;;;;;;;9.90;99.90;;;;;;5095133;28;19915;-76
2022/03/12 11:45:44;;;;;;;;;;;9.90;99.90;;;;;;5094856;28;19908;-76
2022/03/12 11:48:10;;;;;;;;;;;10.00;99.90;;;;;;5094647;28;20406;-77
2022/03/12 11:50:36;;;;;;;;;;;10.00;99.90;;;;;;5094289;28;20410;-77
2022/03/12 11:53:01;;;;;;;;;;;10.10;99.90;;;;;;5094871;28;19912;-77
2022/03/12 11:55:27;;;;;;;;;;;10.10;99.90;;;;;;5094077;28;19912;-77
2022/03/12 11:57:56;;;;;;;;;;;10.10;99.90;;;;;;5094807;28;19908;-77
2022/03/12 12:00:24;;;;;;;;;;;10.10;99.90;;;;;;5093523;28;19943;-76
2022/03/12 12:02:52;;;;;;;;;;;10.10;99.90;;;;;;5094500;28;20003;-77
2022/03/12 12:05:19;;;;;;;;;;;10.10;99.90;;;;;;5099447;28;19916;-77
2022/03/12 12:07:45;;;;;;;;;;;10.20;99.90;;;;;;5094429;28;19908;-77
2022/03/12 12:10:12;;;;;;;;;;;10.30;99.90;;;;;;5093666;28;20261;-77
2022/03/12 12:12:38;;;;;;;;;;;10.30;99.90;;;;;;5093922;28;19998;-77
2022/03/12 12:15:05;;;;;;;;;;;10.30;99.90;;;;;;5094720;28;19955;-77
2022/03/12 12:17:33;;;;;;;;;;;10.40;99.90;;;;;;5093731;28;20017;-76
2022/03/12 12:19:59;;;;;;;;;;;10.40;99.90;;;;;;5093189;28;19912;-77
2022/03/12 12:22:26;;;;;;;;;;;10.40;99.90;;;;;;5094040;28;19913;-76
2022/03/12 12:24:52;;;;;;;;;;;10.50;99.90;;;;;;5094374;28;19908;-77
2022/03/12 12:27:23;;;;;;;;;;;10.60;99.90;;;;;;5094156;28;20276;-77
2022/03/12 12:29:55;;;;;;;;;;;10.60;99.90;;;;;;5094490;28;20258;-78
2022/03/12 12:32:27;;;;;;;;;;;10.70;99.90;;;;;;5094094;28;19955;-76
2022/03/12 12:34:56;;;;;;;;;;;10.80;99.90;;;;;;5094254;28;19916;-77
2022/03/12 12:37:23;;;;;;;;;;;10.70;99.90;;;;;;5094017;28;19962;-76
2022/03/12 12:39:48;;;;;;;;;;;10.80;99.90;;;;;;5093751;28;19954;-77
2022/03/12 12:42:14;;;;;;;;;;;10.80;99.90;;;;;;5097439;28;19908;-77
2022/03/12 12:44:40;;;;;;;;;;;10.90;99.90;;;;;;5094289;28;19960;-77
2022/03/12 12:47:06;;;;;;;;;;;10.80;99.90;;;;;;5093968;28;19915;-77
2022/03/12 12:49:43;;;;;;;;;;;10.80;99.90;;;;;;5093246;28;19915;-77
2022/03/12 12:52:10;;;;;;;;;;;10.90;99.90;;;;;;5093312;28;20349;-78
2022/03/12 12:54:57;;;;;;;;;;;10.90;99.90;;;;;;5093002;28;19912;-78
2022/03/12 12:57:42;;;;;;;;;;;10.90;99.90;;;;;;5093409;28;19908;-77
2022/03/12 13:00:28;;;;;;;;;;;10.90;99.90;;;;;;5093815;28;20347;-79
2022/03/12 13:02:56;;;;;;;;;;;10.90;99.90;;;;;;5085992;28;19915;-78
2022/03/12 13:05:40;;;;;;;;;;;10.90;99.90;;;;;;5093596;28;19912;-78
2022/03/12 13:08:06;;;;;;;;;;;10.80;99.90;;;;;;5093317;28;20400;-78
2022/03/12 13:10:32;;;;;;;;;;;10.90;99.90;;;;;;5092857;28;19944;-78
2022/03/12 13:13:14;;;;;;;;;;;10.90;99.90;;;;;;5093256;28;19977;-79
2022/03/12 13:15:41;;;;;;;;;;;10.90;99.90;;;;;;5091517;28;20348;-78
2022/03/12 13:18:30;;;;;;;;;;;10.90;99.90;;;;;;5093391;28;20333;-78
2022/03/12 13:20:56;;;;;;;;;;;10.90;99.90;;;;;;5099897;28;19912;-78
2022/03/12 13:23:32;;;;;;;;;;;10.90;99.90;;;;;;5093235;28;19915;-78
2022/03/12 13:25:59;;;;;;;;;;;10.90;99.90;;;;;;5092521;28;19916;-79
2022/03/12 13:28:35;;;;;;;;;;;10.90;99.90;;;;;;5092731;28;19912;-77
2022/03/12 13:31:16;;;;;;;;;;;10.90;99.90;;;;;;5092897;28;20284;-79
2022/03/12 13:33:42;;;;;;;;;;;11.00;99.90;;;;;;5090579;28;19912;-78
2022/03/12 13:36:21;;;;;;;;;;;10.90;99.90;;;;;;5096749;28;19908;-80
2022/03/12 13:38:48;;;;;;;;;;;10.80;99.90;;;;;;5095135;28;20013;-79
2022/03/12 13:41:15;;;;;;;;;;;10.70;99.90;;;;;;5092169;28;19912;-80
2022/03/12 13:43:41;;;;;;;;;;;10.60;99.90;;;;;;5091347;28;19941;-79
2022/03/12 13:46:07;;;;;;;;;;;10.50;99.90;;;;;;5092234;28;19908;-78
2022/03/12 13:48:32;;;;;;;;;;;10.50;99.90;;;;;;5091186;28;20268;-78
2022/03/12 13:50:58;;;;;;;;;;;10.40;99.90;;;;;;5091674;28;19912;-78
2022/03/12 13:53:28;;;;;;;;;;;10.40;99.90;;;;;;5092207;28;19912;-77
2022/03/12 13:56:03;;;;;;;;;;;10.30;99.90;;;;;;5092148;28;19957;-78
2022/03/12 13:58:30;;;;;;;;;;;10.30;99.90;;;;;;5091614;28;19908;-78
2022/03/12 14:00:58;;;;;;;;;;;10.30;99.90;;;;;;5092329;28;19920;-78
2022/03/12 14:03:27;;;;;;;;;;;10.20;99.90;;;;;;5091749;28;20273;-78
2022/03/12 14:05:52;;;;;;;;;;;10.10;99.90;;;;;;5091938;28;19908;-78
2022/03/12 14:08:22;;;;;;;;;;;10.10;99.90;;;;;;5092094;28;20264;-78
2022/03/12 14:10:55;;;;;;;;;;;10.00;99.90;;;;;;5079069;28;20337;-78
2022/03/12 14:13:21;;;;;;;;;;;10.00;99.90;;;;;;5090761;28;19926;-79
2022/03/12 14:15:47;;;;;;;;;;;10.00;99.90;;;;;;5091612;28;19904;-79
2022/03/12 14:18:19;;;;;;;;;;;10.00;99.90;;;;;;5091637;28;19908;-79
2022/03/12 14:20:44;;;;;;;;;;;9.90;99.90;;;;;;5090763;28;19908;-78
2022/03/12 14:23:10;;;;;;;;;;;9.90;99.90;;;;;;5091701;28;20015;-78
2022/03/12 14:25:37;;;;;;;;;;;9.90;99.90;;;;;;5091294;28;19909;-79
2022/03/12 14:28:04;;;;;;;;;;;9.90;99.90;;;;;;5091773;28;19908;-79
2022/03/12 14:30:30;;;;;;;;;;;9.90;99.90;;;;;;5091528;28;19931;-79
2022/03/12 14:32:56;;;;;;;;;;;9.80;99.90;;;;;;5106954;28;19911;-78